Time;durP1;ratioP1;P1;durP2;ratioP2;P2;SDS_P1;SDS_P2;PMS_P1;PMS_P2;Temp;Humidity;BMP_temperature;BMP_pressure;BME280_temperature;BME280_humidity;BME280_pressure;Samples;Min_cycle;Max_cycle;Signal;HPM_P1;HPM_P2
2022/04/11 05:46:45;;;;;;;4.80;3.47;;;7.00;79.80;;;7.77;52.51;98901.34;4960073;28;125066;-74
2022/04/11 05:52:54;;;;;;;5.23;3.67;;;7.00;79.00;;;7.73;52.79;98905.78;4959411;28;120236;-75
2022/04/11 05:59:03;;;;;;;4.30;3.47;;;7.20;78.80;;;7.76;52.15;98905.19;4960105;28;125134;-78
2022/04/11 06:05:12;;;;;;;5.23;3.97;;;7.10;78.20;;;7.73;52.03;98909.34;4960273;28;120263;-74
2022/04/11 06:11:21;;;;;;;8.03;5.20;;;7.10;78.10;;;7.66;52.14;98916.31;4959573;28;124952;-73
2022/04/11 06:20:02;;;;;;;5.40;4.07;;;4.80;76.20;;;7.74;51.96;98907.44;4940660;28;119975;-74
2022/04/11 06:26:10;;;;;;;4.97;3.63;;;5.40;76.80;;;7.91;52.16;98899.53;4940436;28;124708;-75
2022/04/11 06:32:27;;;;;;;5.60;4.60;;;5.80;77.00;;;8.14;51.92;98900.66;4940681;28;120050;-74
2022/04/11 06:38:36;;;;;;;4.53;3.80;;;7.50;78.30;;;8.31;51.56;98896.59;4940009;28;124771;-76
2022/04/11 06:44:44;;;;;;;6.30;4.27;;;5.90;76.70;;;8.52;51.54;98895.22;4940235;28;120844;-74
2022/04/11 06:50:53;;;;;;;8.43;4.10;;;7.90;78.00;;;8.73;51.33;98898.53;4939988;28;124655;-73
2022/04/11 06:57:01;;;;;;;8.10;3.83;;;8.10;78.60;;;9.02;50.63;98892.00;4936545;28;119309;-90
2022/04/11 07:00:08;;;;;;;6.50;4.67;;;8.20;78.20;;;9.13;51.08;98885.19;4936037;28;123567;-83
2022/04/11 07:06:56;;;;;;;6.50;4.50;;;8.50;77.90;;;9.35;50.38;98890.09;4928530;28;119133;-91
2022/04/11 07:09:41;;;;;;;7.43;4.13;;;8.60;77.50;;;9.44;50.40;98893.78;4932373;28;119714;-91
2022/04/11 07:12:45;;;;;;;5.30;3.47;;;8.70;77.30;;;9.59;50.03;98889.09;4930513;28;123128;-85
2022/04/11 07:19:12;;;;;;;6.67;4.17;;;8.90;76.70;;;9.79;49.68;98885.97;4956782;28;120296;-91
2022/04/11 07:21:58;;;;;;;4.63;3.83;;;9.00;76.50;;;9.90;49.31;98886.59;4944238;28;118202;-92
2022/04/11 07:25:23;;;;;;;4.20;3.67;;;9.10;76.30;;;10.02;49.14;98886.09;4920928;28;121897;-92
2022/04/11 07:28:29;;;;;;;8.83;3.83;;;9.20;76.20;;;10.18;49.19;98891.00;4942734;28;123005;-89
2022/04/11 07:31:16;;;;;;;5.60;4.13;;;9.40;76.20;;;10.29;48.23;98879.75;4952326;28;118327;-90
2022/04/11 07:33:43;;;;;;;8.10;4.50;;;9.50;75.40;;;10.34;48.42;98876.88;4937140;28;117892;-89
2022/04/11 07:36:11;;;;;;;5.20;3.70;;;9.50;75.00;;;10.44;48.19;98878.63;4949884;28;123251;-88
2022/04/11 07:42:20;;;;;;;6.17;3.60;;;9.80;74.80;;;10.66;47.22;98872.31;4950785;28;120646;-89
2022/04/11 07:44:49;;;;;;;4.80;3.57;;;9.80;73.80;;;10.73;47.38;98878.25;4953173;28;119728;-90
2022/04/11 07:47:15;;;;;;;4.97;3.50;;;10.00;72.90;;;10.84;46.70;98883.22;4943716;28;123765;-92
2022/04/11 07:53:24;;;;;;;6.97;3.47;;;10.10;72.10;;;11.04;45.67;98884.72;4926972;28;119007;-88
2022/04/11 07:55:50;;;;;;;6.47;3.90;;;10.20;71.40;;;11.12;45.92;98890.59;4931185;28;118205;-90
2022/04/11 08:01:59;;;;;;;7.73;3.60;;;10.40;70.60;;;11.26;44.68;98878.34;4936650;28;123466;-90
2022/04/11 08:08:07;;;;;;;2.53;2.30;;;10.60;69.00;;;11.36;44.44;98868.16;4929156;28;119450;-89
2022/04/11 08:10:34;;;;;;;6.00;3.00;;;10.60;68.90;;;11.45;44.27;98867.06;4941163;28;124067;-89
2022/04/11 08:13:20;;;;;;;3.50;2.67;;;10.70;68.60;;;11.56;43.98;98869.59;4947733;28;123058;-88
2022/04/11 08:15:48;;;;;;;3.30;2.77;;;10.80;68.10;;;11.62;44.04;98869.13;4917853;28;117350;-91
2022/04/11 08:19:13;;;;;;;4.20;3.07;;;10.90;68.20;;;11.72;43.67;98874.38;4918949;28;117279;-87
2022/04/11 08:29:03;;;;;;;2.93;2.67;;;11.10;66.90;;;11.87;42.73;98867.63;4933749;28;120375;-89
2022/04/11 08:31:30;;;;;;;4.73;2.67;;;11.20;66.10;;;11.91;42.92;98863.09;4907649;28;119440;-90
2022/04/11 08:34:35;;;;;;;4.33;2.60;;;11.30;66.30;;;12.01;42.56;98861.16;4915755;28;123670;-89
2022/04/11 08:37:01;;;;;;;2.87;2.57;;;11.40;66.00;;;12.04;42.79;98866.09;4910265;28;124243;-89
2022/04/11 08:43:11;;;;;;;3.90;2.63;;;11.50;64.90;;;12.12;42.17;98857.81;4922711;28;119848;-90
2022/04/11 08:45:38;;;;;;;4.57;2.77;;;11.50;65.00;;;12.19;41.99;98862.84;4919729;28;124733;-91
2022/04/11 08:48:24;;;;;;;3.10;2.60;;;11.60;64.90;;;12.30;41.60;98857.84;4923783;28;123025;-90
2022/04/11 08:54:36;;;;;;;3.40;3.10;;;11.70;63.60;;;12.37;41.12;98852.63;4931640;28;119501;-91
2022/04/11 08:57:03;;;;;;;4.03;2.40;;;11.70;63.70;;;12.44;41.40;98860.47;4912927;28;124600;-90
2022/04/11 09:00:10;;;;;;;3.40;2.43;;;11.80;63.70;;;12.53;41.21;98850.22;4916232;28;123934;-90
2022/04/11 09:06:22;;;;;;;3.30;2.50;;;12.00;63.50;;;12.64;40.57;98851.53;4931777;28;119365;-90
2022/04/11 09:12:47;;;;;;;9.07;3.90;;;12.10;63.00;;;12.73;39.79;98841.25;4912672;28;124909;-90
2022/04/11 09:15:42;;;;;;;6.63;2.97;;;12.10;62.00;;;12.75;40.47;98833.44;4905506;28;118010;-91
2022/04/11 09:18:44;;;;;;;4.47;2.80;;;12.20;62.00;;;12.83;40.20;98838.16;4946688;28;118690;-91
2022/04/11 09:21:43;;;;;;;15.23;4.10;;;12.20;62.10;;;12.88;40.05;98828.88;4949679;28;125084;-89
2022/04/11 09:24:19;;;;;;;9.03;3.23;;;12.30;61.40;;;12.96;39.89;98827.25;4939519;28;123614;-90
2022/04/11 09:26:47;;;;;;;8.43;3.23;;;12.30;61.60;;;13.01;40.09;98827.06;4926375;28;118374;-91
2022/04/11 09:29:16;;;;;;;4.90;2.10;;;12.40;61.50;;;13.08;39.94;98826.56;4914983;28;119258;-90
2022/04/11 09:31:43;;;;;;;2.80;2.10;;;12.40;61.50;;;13.16;39.96;98817.41;4940028;28;123140;-91
2022/04/11 09:34:54;;;;;;;2.47;1.90;;;12.70;61.80;;;13.25;39.90;98818.22;4946253;28;124436;-91
2022/04/11 09:38:24;;;;;;;7.50;2.53;;;12.60;61.50;;;13.31;39.21;98821.66;4946221;28;119899;-90
2022/04/11 09:40:55;;;;;;;4.57;2.53;;;12.70;60.90;;;13.31;39.17;98808.59;4918085;28;118325;-90
2022/04/11 09:43:30;;;;;;;2.30;2.10;;;12.70;60.00;;;13.34;38.84;98807.13;4939899;28;123385;-89
2022/04/11 09:46:19;;;;;;;3.07;2.37;;;12.70;60.20;;;13.39;38.52;98810.53;4940630;28;123072;-90
2022/04/11 09:48:52;;;;;;;3.83;1.90;;;12.80;59.40;;;13.43;38.09;98805.97;4938349;28;119251;-90
2022/04/11 09:58:47;;;;;;;2.27;1.80;;;12.90;57.20;;;13.56;37.30;98787.44;4953727;28;124839;-90
2022/04/11 10:01:33;;;;;;;3.07;1.80;;;13.00;57.40;;;13.61;37.96;98784.50;4942678;28;118328;-90
2022/04/11 10:04:02;;;;;;;4.27;2.10;;;13.00;57.40;;;13.67;37.04;98782.34;4914223;28;118122;-90
2022/04/11 10:07:12;;;;;;;6.83;2.30;;;13.10;56.80;;;13.68;36.59;98773.69;4917999;28;124026;-90
2022/04/11 10:10:24;;;;;;;3.13;2.40;;;13.10;55.90;;;13.72;36.77;98773.84;4901719;28;122880;-90
2022/04/11 10:12:54;;;;;;;3.10;2.13;;;13.20;56.20;;;13.79;36.77;98768.59;4918965;28;118852;-90
2022/04/11 10:15:22;;;;;;;3.13;2.10;;;13.20;55.90;;;13.85;36.75;98778.34;4926383;28;119019;-90
2022/04/11 10:18:13;;;;;;;3.90;2.43;;;13.30;56.10;;;13.91;36.37;98765.06;4927953;28;123296;-91
2022/04/11 10:21:18;;;;;;;4.07;1.90;;;13.30;55.50;;;13.97;36.17;98758.19;4929215;28;123537;-90
2022/04/11 10:27:26;;;;;;;3.60;2.60;;;13.50;54.00;;;14.07;34.37;98762.53;4937614;28;118806;-90
2022/04/11 10:33:56;;;;;;;8.73;2.80;;;13.60;52.70;;;14.15;34.28;98759.69;4941277;28;123448;-89
2022/04/11 10:36:31;;;;;;;2.93;2.13;;;13.60;51.70;;;14.25;34.32;98752.13;4938369;28;119778;-89
2022/04/11 10:39:18;;;;;;;2.20;1.60;;;13.70;52.10;;;14.30;34.69;98751.94;4904579;28;119696;-90
2022/04/11 10:42:12;;;;;;;2.37;1.70;;;13.80;52.50;;;14.37;34.45;98746.63;4936818;28;123458;-90
2022/04/11 10:44:56;;;;;;;2.10;1.70;;;13.80;52.10;;;14.48;34.34;98736.75;4928448;28;123730;-91
2022/04/11 10:48:00;;;;;;;2.23;1.90;;;13.90;52.20;;;14.58;34.42;98741.09;4937370;28;117475;-91
2022/04/11 10:50:35;;;;;;;2.93;1.60;;;14.00;52.20;;;14.70;34.64;98734.78;4935115;28;119197;-88
2022/04/11 10:53:58;;;;;;;2.60;1.70;;;14.10;52.50;;;14.82;33.88;98734.00;4931879;28;123088;-89
2022/04/11 10:56:24;;;;;;;4.13;2.40;;;14.20;52.00;;;14.90;33.43;98730.31;4915784;28;123915;-89
2022/04/11 10:59:11;;;;;;;4.05;2.20;;;14.30;51.10;;;15.16;32.56;98724.50;4895278;28;119771;-91
2022/04/11 11:01:58;;;;;;;2.73;1.90;;;14.60;49.70;;;15.18;32.73;98716.63;4915986;28;118197;-88
2022/04/11 11:04:28;;;;;;;2.43;1.90;;;14.60;49.90;;;15.26;33.03;98721.28;4897362;28;122815;-87
2022/04/11 11:10:43;;;;;;;4.93;2.47;;;14.70;49.50;;;15.37;32.47;98704.94;4919446;28;119836;-89
2022/04/11 11:13:34;;;;;;;1.90;1.63;;;14.70;49.00;;;15.44;32.14;98692.03;4944354;28;118990;-90
2022/04/11 11:16:06;;;;;;;3.57;2.30;;;14.90;48.60;;;15.51;31.79;98696.22;4945175;28;124334;-87
2022/04/11 11:18:52;;;;;;;2.97;2.07;;;14.90;47.90;;;15.60;31.75;98683.00;4931548;28;121865;-89
2022/04/11 11:21:44;;;;;;;2.33;1.90;;;15.00;47.70;;;15.66;31.57;98684.38;4929206;28;119323;-89
2022/04/11 11:24:13;;;;;;;2.00;1.77;;;15.10;47.70;;;15.73;31.58;98676.28;4920934;28;118804;-89
2022/04/11 11:27:04;;;;;;;2.13;1.83;;;15.20;47.60;;;15.85;31.75;98678.22;4928550;28;123537;-89
2022/04/11 11:29:51;;;;;;;2.23;1.80;;;15.30;47.90;;;15.98;32.02;98681.81;4932685;28;123173;-89
2022/04/11 11:32:17;;;;;;;3.60;2.27;;;15.40;48.30;;;16.11;31.76;98663.91;4897588;28;119322;-90
2022/04/11 11:35:05;;;;;;;2.80;2.10;;;15.50;47.60;;;16.26;31.27;98670.72;4899658;28;120040;-89
2022/04/11 11:37:33;;;;;;;3.50;2.00;;;15.60;47.00;;;16.39;30.99;98663.94;4923611;28;123568;-89
2022/04/11 11:40:05;;;;;;;1.70;1.50;;;15.80;46.90;;;16.48;31.23;98658.19;4927682;28;123838;-89
2022/04/11 11:42:37;;;;;;;1.87;1.50;;;15.90;47.00;;;16.56;30.90;98658.03;4921051;28;119635;-92
2022/04/11 11:45:27;;;;;;;2.27;1.70;;;16.00;46.90;;;16.66;30.68;98648.34;4910987;28;118211;-90
2022/04/11 11:47:53;;;;;;;2.30;1.53;;;16.10;45.60;;;16.74;30.46;98652.97;4924129;28;124096;-92
2022/04/11 11:50:20;;;;;;;2.40;1.80;;;16.20;45.80;;;16.84;29.84;98651.63;4915166;28;123305;-92
2022/04/11 11:52:57;;;;;;;2.37;2.00;;;16.20;44.70;;;16.95;30.02;98646.34;4896683;28;118406;-90
2022/04/11 11:55:24;;;;;;;3.53;2.10;;;16.30;45.30;;;17.05;29.31;98640.22;4908428;28;119212;-90
2022/04/11 11:58:04;;;;;;;2.53;2.00;;;16.50;44.20;;;17.18;29.40;98640.97;4915052;28;123186;-91
2022/04/11 12:00:34;;;;;;;4.10;2.20;;;16.50;44.50;;;17.27;28.67;98630.41;4920188;28;123902;-92
2022/04/11 12:05:56;;;;;;;3.47;2.30;;;16.70;42.90;;;17.43;28.45;98624.81;4927763;28;118857;-91
2022/04/11 12:08:23;;;;;;;2.40;1.77;;;16.80;42.60;;;17.51;29.03;98629.41;4908351;28;124204;-90
2022/04/11 12:10:53;;;;;;;3.97;2.47;;;16.90;43.20;;;17.64;28.17;98616.13;4918764;28;122941;-92
2022/04/11 12:13:31;;;;;;;4.07;2.37;;;17.00;42.40;;;17.77;28.64;98620.41;4922130;28;119881;-91
2022/04/11 12:16:17;;;;;;;4.53;2.17;;;17.10;42.70;;;17.94;28.46;98613.63;4884182;28;118869;-92
2022/04/11 12:18:56;;;;;;;3.03;1.90;;;17.30;42.70;;;18.08;28.11;98618.72;4910950;28;124313;-92
2022/04/11 12:21:53;;;;;;;5.70;2.70;;;17.40;42.30;;;18.22;27.73;98615.44;4928151;28;123955;-91
2022/04/11 12:24:30;;;;;;;3.00;1.90;;;17.50;42.00;;;18.31;27.67;98610.41;4851444;29;119013;-91
2022/04/11 12:27:13;;;;;;;3.93;2.00;;;17.70;41.40;;;18.41;27.24;98604.22;4850991;29;119374;-92
2022/04/11 12:29:44;;;;;;;2.20;2.00;;;17.80;40.80;;;18.55;26.91;98596.09;4834221;29;123273;-91
2022/04/11 12:32:15;;;;;;;2.83;1.93;;;17.90;40.30;;;18.69;26.86;98589.16;4849232;29;123072;-91
2022/04/11 12:34:45;;;;;;;1.90;1.70;;;18.00;40.30;;;18.79;27.21;98602.56;4852491;29;119892;-92
2022/04/11 12:37:14;;;;;;;2.13;1.60;;;18.10;40.60;;;18.89;27.01;98599.16;4837323;29;118340;-92
2022/04/11 12:39:59;;;;;;;2.30;1.73;;;18.20;40.20;;;19.00;26.93;98590.13;4846322;29;124235;-91
2022/04/11 12:42:27;;;;;;;2.40;1.67;;;18.30;40.20;;;19.12;26.97;98587.13;4834645;29;122942;-92
2022/04/11 12:45:08;;;;;;;5.77;1.67;;;16.90;38.90;;;19.25;26.72;98585.75;4852493;28;118838;-91
2022/04/11 12:48:07;;;;;;;3.33;1.67;;;18.60;40.10;;;19.35;26.62;98585.13;4853477;28;119174;-93
2022/04/11 12:50:36;;;;;;;1.90;1.70;;;18.70;39.90;;;19.46;26.46;98582.47;4843660;29;124133;-91
2022/04/11 12:53:05;;;;;;;2.03;1.80;;;18.80;39.20;;;19.55;26.38;98565.38;4841631;29;124178;-90
2022/04/11 12:55:33;;;;;;;3.27;2.20;;;18.90;39.00;;;;;;4836891;29;119354;-91
2022/04/11 12:58:06;;;;;;;2.03;1.70;;;19.00;37.30;;;19.70;25.53;98566.44;4852306;29;119833;-90
2022/04/11 13:00:42;;;;;;;2.70;1.87;;;19.10;37.90;;;19.78;25.55;98566.16;4857827;28;124257;-92
2022/04/11 13:03:08;;;;;;;2.50;2.07;;;19.20;37.40;;;19.93;25.69;98560.72;4922186;28;123749;-91
2022/04/11 13:05:35;;;;;;;3.33;1.80;;;19.30;37.90;;;20.08;25.83;98560.53;4910911;28;120267;-90
2022/04/11 13:08:03;;;;;;;2.80;1.60;;;19.40;38.50;;;20.24;25.53;98545.47;4929574;28;119144;-91
2022/04/11 13:10:30;;;;;;;1.73;1.47;;;19.60;38.20;;;20.38;25.82;98553.25;4928532;28;124912;-91
2022/04/11 13:12:58;;;;;;;3.93;2.13;;;19.70;38.50;;;20.49;24.78;98546.53;4909488;28;123734;-91
2022/04/11 13:15:26;;;;;;;3.10;1.80;;;19.80;37.00;;;20.57;25.07;98532.63;4910023;28;120151;-90
2022/04/11 13:20:38;;;;;;;1.80;1.50;;;20.00;37.40;;;20.79;25.53;98528.00;4930658;28;124575;-91
2022/04/11 13:23:06;;;;;;;2.20;1.50;;;20.10;38.00;;;20.93;25.26;98522.53;4908347;28;123728;-93
2022/04/11 13:25:34;;;;;;;1.93;1.73;;;20.20;38.00;;;21.10;25.39;98516.25;4920125;28;118567;-90
2022/04/11 13:28:01;;;;;;;2.30;1.70;;;20.40;38.40;;;21.27;25.34;98514.75;4912820;28;118097;-91
2022/04/11 13:30:27;;;;;;;2.10;1.90;;;20.50;37.50;;;21.38;24.16;98510.03;4916686;28;124633;-87
2022/04/11 13:32:54;;;;;;;2.17;1.97;;;20.70;36.30;;;21.40;23.97;98507.63;4917466;28;123810;-90
2022/04/11 13:35:20;;;;;;;2.27;1.90;;;20.70;35.90;;;21.47;24.72;98503.28;4928772;28;119452;-89
2022/04/11 13:37:49;;;;;;;3.00;2.13;;;20.80;36.20;;;21.52;24.28;98500.91;4901418;28;118757;-91
2022/04/11 13:40:15;;;;;;;2.10;1.80;;;20.90;35.20;;;21.57;24.12;98494.91;4928716;28;123155;-90
2022/04/11 13:42:42;;;;;;;3.70;2.60;;;20.90;34.80;;;21.69;23.68;98501.38;4904029;28;123249;-93
2022/04/11 13:45:09;;;;;;;2.03;1.73;;;21.00;35.20;;;21.81;24.15;98484.13;4902701;28;118774;-91
2022/04/11 13:47:36;;;;;;;2.30;1.80;;;21.20;35.30;;;21.95;24.25;98492.66;4910960;28;118945;-89
2022/04/11 13:50:03;;;;;;;2.37;1.73;;;21.30;35.70;;;22.11;24.12;98489.50;4929763;28;124083;-91
2022/04/11 13:52:30;;;;;;;2.00;1.70;;;21.40;35.60;;;22.28;24.32;98482.31;4928429;28;123699;-91
2022/04/11 13:54:56;;;;;;;1.53;1.43;;;21.50;36.10;;;22.47;24.32;98481.94;4926601;28;117599;-90
2022/04/11 13:57:23;;;;;;;1.47;1.37;;;21.70;36.30;;;22.63;23.73;98475.94;4908478;28;119058;-90
2022/04/11 13:59:49;;;;;;;2.40;1.77;;;21.90;35.60;;;22.74;23.49;98473.13;4922827;28;123464;-91
2022/04/11 14:02:16;;;;;;;1.50;1.40;;;22.00;35.00;;;22.85;23.74;98475.94;4909753;28;122791;-91
2022/04/11 14:04:43;;;;;;;1.70;1.50;;;22.20;35.60;;;23.02;23.80;98475.13;4925186;28;120248;-91
2022/04/11 14:07:09;;;;;;;1.77;1.53;;;22.30;36.00;;;23.21;23.40;98467.47;4927082;28;120006;-89
2022/04/11 14:09:36;;;;;;;1.80;1.53;;;22.40;35.30;;;23.30;23.09;98465.84;4929344;28;124705;-91
2022/04/11 14:12:03;;;;;;;3.00;1.80;;;22.60;34.90;;;23.35;23.20;98464.63;4924530;28;122931;-94
2022/04/11 14:14:29;;;;;;;2.33;2.00;;;22.70;34.50;;;23.45;23.08;98465.78;4928260;28;118874;-92
2022/04/11 14:16:57;;;;;;;3.33;2.30;;;22.80;34.40;;;23.52;22.45;98465.78;4928532;28;119134;-92
2022/04/11 14:19:24;;;;;;;3.00;1.80;;;22.90;33.30;;;23.59;23.25;98465.78;4930248;28;125301;-92
2022/04/11 14:21:51;;;;;;;3.63;1.20;;;22.90;34.10;;;23.72;23.19;98463.31;4931027;28;126470;-92
2022/04/11 14:24:17;;;;;;;2.13;1.23;;;23.10;34.50;;;23.85;23.15;98455.22;4927976;28;118875;-92
2022/04/11 14:26:45;;;;;;;1.43;1.33;;;23.20;34.60;;;24.02;23.07;98454.31;4902399;28;118229;-92
2022/04/11 14:29:12;;;;;;;1.70;1.40;;;23.30;34.60;;;24.18;23.00;98446.16;4926552;28;124573;-92
2022/04/11 14:31:39;;;;;;;1.23;1.13;;;23.40;34.20;;;24.35;22.95;98446.47;4909810;28;123346;-92
2022/04/11 14:34:05;;;;;;;1.07;0.97;;;23.60;34.40;;;24.48;22.70;98433.50;4894451;28;118353;-92
2022/04/11 14:36:32;;;;;;;1.73;1.30;;;23.70;34.30;;;24.61;22.63;98439.41;4894556;28;117960;-91
2022/04/11 14:38:59;;;;;;;1.77;1.30;;;23.90;34.40;;;24.69;22.64;98430.50;4927883;28;126367;-89
2022/04/11 14:41:26;;;;;;;1.40;1.30;;;24.00;33.80;;;24.76;22.39;98428.81;4925890;28;123788;-90
2022/04/11 14:43:54;;;;;;;1.93;1.67;;;24.10;33.90;;;24.83;22.50;98428.75;4898190;28;120546;-91
2022/04/11 14:46:20;;;;;;;2.07;1.43;;;24.20;33.80;;;24.91;22.38;98419.78;4909460;28;118648;-92
2022/04/11 14:48:46;;;;;;;1.20;1.10;;;24.30;34.00;;;25.05;22.61;98418.84;4923352;28;124327;-92
2022/04/11 14:51:13;;;;;;;2.17;1.40;;;24.40;34.20;;;25.14;22.47;98413.47;4924622;28;122927;-92
2022/04/11 14:53:42;;;;;;;1.63;1.50;;;24.50;33.70;;;25.17;22.13;98413.91;4917518;28;118298;-91
2022/04/11 14:56:08;;;;;;;1.40;1.30;;;24.50;33.20;;;25.22;22.03;98411.41;4895370;28;118141;-91
2022/04/11 14:58:35;;;;;;;3.00;1.73;;;24.70;34.10;;;25.29;22.15;98400.03;4908662;28;124051;-90
2022/04/11 15:01:02;;;;;;;1.87;1.60;;;24.70;32.80;;;25.40;21.79;98399.91;4927443;28;123675;-89
2022/04/11 15:03:29;;;;;;;1.40;1.10;;;24.80;33.20;;;25.52;21.92;98396.53;4921807;28;119873;-90
2022/04/11 15:05:55;;;;;;;2.37;1.60;;;24.90;33.30;;;25.63;21.83;98389.94;4926397;28;118962;-90
2022/04/11 15:08:22;;;;;;;3.00;2.10;;;25.00;32.80;;;25.67;21.68;98396.34;4918798;28;124276;-89
2022/04/11 15:10:48;;;;;;;1.40;1.17;;;25.10;32.30;;;25.70;21.63;98395.50;4920276;28;123512;-89
2022/04/11 15:13:15;;;;;;;1.80;1.40;;;25.10;32.40;;;25.79;21.79;98384.44;4925880;28;120056;-88
2022/04/11 15:15:42;;;;;;;1.87;1.40;;;25.20;32.60;;;25.86;21.47;98387.22;4910768;28;118117;-89
2022/04/11 15:18:09;;;;;;;1.60;1.20;;;25.30;32.60;;;25.90;21.78;98379.50;4902190;28;123124;-87
2022/04/11 15:20:36;;;;;;;1.20;1.03;;;25.30;32.40;;;25.94;21.96;98385.88;4926572;28;123922;-87
2022/04/11 15:23:02;;;;;;;1.37;1.27;;;25.40;32.40;;;25.99;21.61;98373.28;4922112;28;118820;-88
2022/04/11 15:25:29;;;;;;;1.77;1.60;;;25.50;32.40;;;26.05;21.85;98384.94;4920354;28;119020;-87
2022/04/11 15:27:55;;;;;;;1.73;1.37;;;25.50;32.20;;;26.09;21.39;98378.00;4923665;28;124323;-87
2022/04/11 15:30:22;;;;;;;1.50;1.20;;;25.50;31.90;;;26.14;21.88;98368.19;4925666;28;123522;-87
2022/04/11 15:32:49;;;;;;;1.20;1.10;;;25.60;32.00;;;26.19;21.56;98382.72;4919826;28;119721;-89
2022/04/11 15:35:17;;;;;;;1.60;1.20;;;25.70;32.00;;;26.24;21.25;98367.25;4920925;28;118986;-89
2022/04/11 15:37:44;;;;;;;1.80;1.37;;;25.70;31.70;;;26.29;21.79;98355.44;4927117;28;123459;-89
2022/04/11 15:40:14;;;;;;;1.03;0.93;;;25.80;31.80;;;26.35;21.58;98362.19;4918691;28;123562;-88
2022/04/11 15:42:44;;;;;;;1.40;1.10;;;25.80;31.70;;;26.40;21.08;98363.75;4905213;28;119355;-88
2022/04/11 15:45:11;;;;;;;1.90;1.20;;;25.90;31.50;;;26.43;21.38;98362.88;4907131;28;120436;-89
2022/04/11 15:47:38;;;;;;;1.70;1.07;;;25.90;31.20;;;26.42;21.45;98359.25;4925024;28;124543;-90
2022/04/11 15:50:09;;;;;;;1.50;1.20;;;25.90;31.20;;;26.43;21.11;98346.69;4908548;28;123444;-87
2022/04/11 15:52:36;;;;;;;1.47;1.27;;;26.00;31.20;;;26.43;21.36;98351.56;4927773;28;119133;-87
2022/04/11 15:55:05;;;;;;;1.20;1.00;;;26.00;31.00;;;26.41;20.90;98348.34;4917844;28;117917;-89
2022/04/11 15:57:31;;;;;;;1.30;1.10;;;26.00;30.80;;;26.41;21.31;98349.16;4904113;28;123699;-89
2022/04/11 16:00:05;;;;;;;1.30;1.17;;;26.00;30.70;;;26.44;21.09;98350.34;4909769;28;121909;-88
2022/04/11 16:02:32;;;;;;;1.20;1.10;;;26.00;30.80;;;26.49;20.83;98351.84;4920890;28;119555;-87
2022/04/11 16:04:59;;;;;;;1.80;1.10;;;26.00;30.80;;;26.52;21.05;98345.34;4929242;28;117416;-85
2022/04/11 16:07:25;;;;;;;1.50;1.20;;;26.00;30.70;;;26.54;20.61;98340.06;4923826;28;123639;-86
2022/04/11 16:09:52;;;;;;;1.37;1.10;;;26.10;30.60;;;26.53;21.12;98332.81;4907669;28;123118;-88
2022/04/11 16:12:18;;;;;;;1.50;1.40;;;26.10;30.30;;;26.52;20.66;98331.19;4911125;28;119061;-88
2022/04/11 16:14:45;;;;;;;1.60;1.17;;;26.10;30.20;;;26.56;20.75;98332.72;4925485;28;119261;-87
2022/04/11 16:17:12;;;;;;;1.50;1.40;;;26.10;30.40;;;26.61;21.05;98328.63;4911470;28;123717;-87
2022/04/11 16:19:38;;;;;;;1.40;1.00;;;26.10;30.10;;;26.62;20.46;98327.38;4920483;28;123766;-88
2022/04/11 16:22:05;;;;;;;1.53;0.97;;;26.10;30.10;;;26.63;20.95;98323.31;4906909;28;119407;-85
2022/04/11 16:24:32;;;;;;;1.20;1.10;;;26.10;30.10;;;26.65;20.84;98318.00;4899926;28;118015;-86
2022/04/11 16:26:58;;;;;;;1.23;1.00;;;26.20;30.10;;;26.66;21.04;98325.28;4892630;28;123685;-86
2022/04/11 16:29:25;;;;;;;1.33;1.10;;;26.20;30.00;;;26.69;20.71;98329.28;4923256;28;123894;-88
2022/04/11 16:31:52;;;;;;;1.30;1.20;;;26.20;30.10;;;26.66;20.73;98330.97;4930472;28;120150;-85
2022/04/11 16:34:18;;;;;;;1.30;1.20;;;26.20;30.10;;;26.63;20.77;98320.50;4913836;28;119976;-89
2022/04/11 16:36:45;;;;;;;2.23;1.30;;;26.20;30.00;;;26.56;20.75;98314.94;4927323;28;124130;-89
2022/04/11 16:39:12;;;;;;;1.30;1.10;;;26.10;30.00;;;26.53;20.61;98324.31;4926222;28;123882;-89
2022/04/11 16:41:38;;;;;;;2.23;1.20;;;26.10;30.00;;;26.48;20.37;98325.56;4928841;28;119492;-89
2022/04/11 16:44:05;;;;;;;1.93;1.17;;;26.10;29.80;;;26.44;20.68;98325.63;4926996;28;118982;-90
2022/04/11 16:46:32;;;;;;;1.23;1.10;;;26.10;29.80;;;26.42;20.42;98325.25;4924405;28;124143;-91
2022/04/11 16:48:58;;;;;;;1.30;1.20;;;26.00;29.70;;;26.40;20.56;98326.91;4923320;28;123916;-89
2022/04/11 16:51:25;;;;;;;1.40;1.20;;;26.00;29.70;;;26.35;20.46;98325.38;4927231;28;119765;-90
2022/04/11 16:53:51;;;;;;;1.50;1.40;;;26.00;29.70;;;26.28;20.48;98316.22;4927094;28;119517;-88
2022/04/11 16:56:18;;;;;;;1.97;1.40;;;25.90;29.30;;;26.19;20.44;98313.91;4927496;28;124012;-88
2022/04/11 16:58:45;;;;;;;1.70;1.33;;;25.80;29.40;;;26.09;20.36;98326.25;4908622;28;123168;-90
2022/04/11 17:01:11;;;;;;;2.30;1.50;;;25.70;29.30;;;25.96;20.62;98324.00;4925927;28;119057;-89
2022/04/11 17:03:38;;;;;;;2.30;1.40;;;25.60;29.40;;;25.84;20.80;98326.59;4930006;28;119268;-89
2022/04/11 17:06:10;;;;;;;1.97;1.20;;;25.50;29.40;;;25.73;20.80;98326.72;4925306;28;124368;-89
2022/04/11 17:08:38;;;;;;;1.70;1.47;;;25.50;29.60;;;25.61;21.37;98319.63;4908733;28;124352;-89
2022/04/11 17:11:06;;;;;;;1.30;1.20;;;25.30;29.60;;;25.49;21.34;98335.13;4913985;28;119541;-89
2022/04/11 17:13:33;;;;;;;2.03;1.50;;;25.20;29.70;;;25.34;21.01;98328.06;4925743;28;119148;-88
2022/04/11 17:18:45;;;;;;;1.43;1.20;;;25.00;29.60;;;25.04;21.22;98334.44;4906206;28;124596;-88
2022/04/11 17:21:12;;;;;;;1.63;1.20;;;24.80;29.60;;;24.83;21.31;98321.38;4928297;28;120297;-88
2022/04/11 17:23:39;;;;;;;1.67;1.40;;;24.70;29.60;;;24.67;21.60;98319.91;4905555;28;119878;-88
2022/04/11 17:26:07;;;;;;;1.63;1.47;;;24.50;29.60;;;24.53;21.81;98320.06;4929790;28;124059;-89
2022/04/11 17:28:36;;;;;;;1.20;1.10;;;24.40;29.70;;;24.37;21.73;98323.41;4903238;28;123031;-89
2022/04/11 17:31:03;;;;;;;1.20;1.10;;;24.20;29.70;;;24.22;21.71;98322.72;4928680;28;119737;-89
2022/04/11 17:33:29;;;;;;;1.47;1.27;;;24.10;29.80;;;24.08;22.15;98324.88;4917793;28;118917;-89
2022/04/11 17:35:56;;;;;;;1.33;1.17;;;23.90;29.70;;;23.91;22.04;98323.75;4926584;28;124092;-89
2022/04/11 17:38:24;;;;;;;1.70;1.30;;;23.80;29.80;;;23.75;22.13;98333.56;4926898;28;124135;-90
2022/04/11 17:40:53;;;;;;;2.00;1.30;;;23.60;29.80;;;23.60;22.21;98338.44;4925839;28;119357;-90
2022/04/11 17:43:22;;;;;;;1.50;1.37;;;23.40;29.80;;;23.46;22.33;98334.91;4920520;28;119178;-91
2022/04/11 17:45:50;;;;;;;1.53;1.40;;;23.30;29.90;;;23.35;22.40;98349.03;4892029;28;123606;-88
2022/04/11 17:48:17;;;;;;;1.27;1.17;;;23.20;30.00;;;23.21;22.60;98349.88;4920470;28;124495;-89
2022/04/11 17:50:43;;;;;;;1.97;1.30;;;23.10;30.10;;;23.08;22.59;98352.34;4927006;28;119312;-90
2022/04/11 17:53:11;;;;;;;1.30;1.20;;;22.90;30.10;;;22.94;22.73;98346.72;4913989;28;118726;-90
2022/04/11 17:55:38;;;;;;;1.40;1.30;;;22.80;30.20;;;22.78;23.03;98344.34;4921251;28;124651;-90
2022/04/11 17:58:05;;;;;;;1.93;1.33;;;22.60;30.20;;;22.64;22.99;98350.00;4918436;28;123689;-90
2022/04/11 18:00:32;;;;;;;2.17;1.40;;;22.50;30.30;;;22.52;23.03;98356.06;4925063;28;119376;-92
2022/04/11 18:02:58;;;;;;;2.20;1.27;;;22.40;30.50;;;22.40;23.29;98351.63;4931207;28;121097;-90
2022/04/11 18:05:26;;;;;;;1.60;1.50;;;22.20;30.50;;;22.27;23.25;98365.31;4924614;28;124181;-88
2022/04/11 18:07:56;;;;;;;1.90;1.53;;;22.10;30.50;;;22.14;23.46;98358.44;4929952;28;123949;-93
2022/04/11 18:10:23;;;;;;;1.87;1.50;;;22.00;30.60;;;21.99;23.23;98361.22;4925713;28;118641;-92
2022/04/11 18:12:50;;;;;;;1.70;1.17;;;21.80;30.60;;;21.87;23.23;98358.81;4933984;28;120063;-93
2022/04/11 18:15:17;;;;;;;1.90;1.27;;;21.70;30.70;;;21.76;23.64;98364.41;4931101;28;124143;-94
2022/04/11 18:17:44;;;;;;;2.40;1.60;;;21.60;30.80;;;21.63;23.55;98366.00;4915662;28;123804;-92
2022/04/11 18:20:11;;;;;;;1.40;1.30;;;21.40;30.80;;;21.50;23.89;98362.72;4928762;28;119786;-92